Time;durP1;ratioP1;P1;durP2;ratioP2;P2;SDS_P1;SDS_P2;PMS_P1;PMS_P2;Temp;Humidity;BMP_temperature;BMP_pressure;BME280_temperature;BME280_humidity;BME280_pressure;Samples;Min_cycle;Max_cycle;Signal;HPM_P1;HPM_P2
2022/11/18 00:01:57;;;;;;;27.87;4.10;;;;;;;17.70;nan;101381.47;5988914;23;20453;-89
2022/11/18 00:04:25;;;;;;;23.87;3.60;;;;;;;17.64;nan;101371.31;5986938;23;20509;-89
2022/11/18 00:06:53;;;;;;;25.03;4.40;;;;;;;17.72;nan;101384.84;5986449;23;20454;-90
2022/11/18 00:09:23;;;;;;;26.73;4.13;;;;;;;17.67;nan;101376.41;5985559;23;20889;-89
2022/11/18 00:14:46;;;;;;;28.87;4.63;;;;;;;17.68;nan;101380.84;6106078;23;20473;-89
2022/11/18 00:17:15;;;;;;;29.93;5.23;;;;;;;17.60;nan;101381.94;6054240;23;20453;-89
2022/11/18 00:19:43;;;;;;;24.73;4.80;;;;;;;17.61;nan;101382.78;6054568;23;20742;-89
2022/11/18 00:22:13;;;;;;;32.97;5.40;;;;;;;17.53;nan;101370.06;6054280;23;20477;-89
2022/11/18 00:24:41;;;;;;;28.20;4.77;;;;;;;17.64;nan;101390.66;6077837;23;20976;-89
2022/11/18 00:27:09;;;;;;;32.03;5.37;;;;;;;17.61;nan;101388.31;5963613;23;21107;-89
2022/11/18 00:29:38;;;;;;;30.27;4.20;;;;;;;17.61;nan;101391.94;5963717;23;20409;-89
2022/11/18 00:32:14;;;;;;;36.33;5.20;;;;;;;17.63;nan;101404.69;5941439;23;20489;-89
2022/11/18 00:34:42;;;;;;;21.10;4.63;;;;;;;17.47;nan;101371.00;5941276;23;20422;-90
2022/11/18 00:37:10;;;;;;;17.40;3.30;;;;;;;17.56;nan;101388.13;5963747;23;20916;-90
2022/11/18 00:39:38;;;;;;;21.93;3.30;;;;;;;17.54;nan;101374.53;5957762;24;20450;-89
2022/11/18 00:44:53;;;;;;;18.37;3.57;;;;;;;17.52;nan;101379.44;5961699;24;20445;-90
2022/11/18 00:47:27;;;;;;;21.60;3.40;;;;;;;17.51;nan;101365.88;5935915;24;21085;-90
2022/11/18 00:49:58;;;;;;;32.33;3.93;;;;;;;17.48;nan;101371.84;5937426;24;20902;-90
2022/11/18 00:52:27;;;;;;;15.67;3.50;;;;;;;17.43;nan;101360.59;6022218;23;20419;-90
2022/11/18 00:54:57;;;;;;;20.23;4.27;;;;;;;17.47;nan;101379.28;6049061;23;20739;-89
2022/11/18 00:57:25;;;;;;;24.23;3.23;;;;;;;17.45;nan;101389.72;6026106;23;20493;-90
2022/11/18 00:59:55;;;;;;;15.30;2.83;;;;;;;17.44;nan;101367.81;6049298;23;20486;-90
2022/11/18 01:02:23;;;;;;;26.83;4.70;;;;;;;17.43;nan;101366.97;6026438;23;20510;-90
2022/11/18 01:04:57;;;;;;;13.20;2.60;;;;;;;17.42;nan;101367.19;6025566;23;20732;-90
2022/11/18 01:07:26;;;;;;;13.83;2.57;;;;;;;17.46;nan;101379.50;6025299;23;20952;-90
2022/11/18 01:09:54;;;;;;;21.70;2.67;;;;;;;17.30;nan;101352.41;6049013;23;20418;-90
2022/11/18 01:15:09;;;;;;;13.50;2.63;;;;;;;17.40;nan;101383.16;6056062;23;20422;-90
2022/11/18 01:17:42;;;;;;;14.67;2.70;;;;;;;17.37;nan;101375.31;6026215;23;20490;-90
2022/11/18 01:20:11;;;;;;;20.30;3.20;;;;;;;17.36;nan;101379.13;6025250;23;20419;-90
2022/11/18 01:22:41;;;;;;;14.67;2.87;;;;;;;17.36;nan;101379.13;6048369;23;20407;-89
2022/11/18 01:25:08;;;;;;;17.87;2.53;;;;;;;17.29;nan;101364.53;6048505;23;20890;-90
2022/11/18 01:27:36;;;;;;;20.27;2.83;;;;;;;17.33;nan;101365.75;6048586;23;20457;-90
2022/11/18 01:30:05;;;;;;;10.73;2.17;;;;;;;17.29;nan;101367.31;6049141;23;20712;-90
2022/11/18 01:32:34;;;;;;;22.27;3.00;;;;;;;17.32;nan;101373.19;6025066;23;20434;-90
2022/11/18 01:35:03;;;;;;;16.03;2.47;;;;;;;17.29;nan;101359.00;6025315;23;20406;-90
2022/11/18 01:37:33;;;;;;;20.33;3.80;;;;;;;17.32;nan;101370.44;6049589;23;20422;-90
2022/11/18 01:40:04;;;;;;;14.23;2.47;;;;;;;17.21;nan;101344.38;6047695;23;20589;-89
2022/11/18 01:42:32;;;;;;;12.37;2.40;;;;;;;17.20;nan;101345.44;6028104;23;20395;-89
2022/11/18 01:45:21;;;;;;;12.37;2.53;;;;;;;17.31;nan;101357.72;6027701;23;20395;-89
2022/11/18 01:48:13;;;;;;;18.40;3.10;;;;;;;17.31;nan;101365.16;6098224;23;20945;-90
2022/11/18 01:50:48;;;;;;;16.47;2.13;;;;;;;17.29;nan;101368.16;6064136;23;20427;-89
2022/11/18 01:53:30;;;;;;;15.87;2.70;;;;;;;17.20;nan;101353.75;6050222;23;20498;-89
2022/11/18 01:55:59;;;;;;;24.43;3.43;;;;;;;17.23;nan;101353.31;6027046;23;20421;-90
2022/11/18 01:58:36;;;;;;;9.60;2.40;;;;;;;17.26;nan;101363.06;6027580;23;20403;-89
2022/11/18 02:01:04;;;;;;;17.23;2.67;;;;;;;17.27;nan;101370.28;6027640;23;20415;-89
2022/11/18 02:03:33;;;;;;;11.20;3.13;;;;;;;17.17;nan;101354.19;6026664;23;20912;-89
2022/11/18 02:06:01;;;;;;;20.80;3.27;;;;;;;17.21;nan;101360.13;6026861;23;20505;-89
2022/11/18 02:08:29;;;;;;;22.43;3.20;;;;;;;17.16;nan;101357.16;6026549;23;20403;-90
2022/11/18 02:10:57;;;;;;;29.70;3.73;;;;;;;17.19;nan;101367.78;6027525;23;20490;-90
2022/11/18 02:13:25;;;;;;;16.97;3.27;;;;;;;17.13;nan;101361.22;6027328;23;20843;-90
2022/11/18 02:16:01;;;;;;;19.37;3.37;;;;;;;17.19;nan;101374.16;6026617;23;20857;-90
2022/11/18 02:18:58;;;;;;;20.53;2.90;;;;;;;17.16;nan;101373.72;6073455;23;20893;-89
2022/11/18 02:22:02;;;;;;;20.80;3.23;;;;;;;17.18;nan;101377.97;5987450;23;20526;-89
2022/11/18 02:24:54;;;;;;;15.20;2.37;;;;;;;17.13;nan;101374.19;5987268;23;20428;-89
2022/11/18 02:27:38;;;;;;;16.67;2.93;;;;;;;17.15;nan;101383.09;5990652;23;20456;-89
2022/11/18 02:30:07;;;;;;;9.97;2.13;;;;;;;17.14;nan;101360.13;5986819;23;20455;-89
2022/11/18 02:32:54;;;;;;;13.30;2.47;;;;;;;17.14;nan;101364.81;5964974;23;20984;-89
2022/11/18 02:35:40;;;;;;;17.27;2.40;;;;;;;17.11;nan;101354.25;5987517;23;20493;-88
2022/11/18 02:38:17;;;;;;;11.57;2.00;;;;;;;17.08;nan;101347.25;5966239;23;20809;-90
2022/11/18 02:40:48;;;;;;;19.87;2.33;;;;;;;17.06;nan;101357.66;5964949;23;21100;-89
2022/11/18 02:43:25;;;;;;;19.67;2.90;;;;;;;17.00;nan;101341.97;5964724;23;20477;-90
2022/11/18 02:45:55;;;;;;;11.77;2.10;;;;;;;17.05;nan;101361.50;5965564;23;20417;-89
2022/11/18 02:48:24;;;;;;;20.57;1.90;;;;;;;17.03;nan;101369.16;5964187;23;20398;-89
2022/11/18 02:50:52;;;;;;;11.03;1.73;;;;;;;16.98;nan;101368.09;5965152;23;21048;-89
2022/11/18 02:53:21;;;;;;;11.07;1.53;;;;;;;17.02;nan;101384.03;5964003;23;20409;-89
2022/11/18 02:55:48;;;;;;;10.43;1.70;;;;;;;17.00;nan;101375.09;5952619;23;20417;-89
2022/11/18 02:58:17;;;;;;;17.23;1.70;;;;;;;16.94;nan;101367.69;6019909;23;20414;-89
2022/11/18 03:00:44;;;;;;;9.10;2.20;;;;;;;16.87;nan;101353.09;6026268;23;20450;-90
2022/11/18 03:03:32;;;;;;;6.97;1.30;;;;;;;16.97;nan;101364.50;6026125;23;20411;-90
2022/11/18 03:06:22;;;;;;;15.17;2.77;;;;;;;16.86;nan;101337.59;6027197;23;20493;-90
2022/11/18 03:08:58;;;;;;;12.70;1.60;;;;;;;16.95;nan;101355.59;6052385;23;20494;-90
2022/11/18 03:11:28;;;;;;;9.57;1.60;;;;;;;16.97;nan;101347.94;6049743;23;20482;-89
2022/11/18 03:14:06;;;;;;;9.80;1.70;;;;;;;16.95;nan;101344.53;6026265;23;20411;-89
2022/11/18 03:16:41;;;;;;;11.70;1.27;;;;;;;16.94;nan;101348.38;6049231;23;20755;-90
2022/11/18 03:19:17;;;;;;;10.07;1.83;;;;;;;16.87;nan;101319.97;6027261;23;20474;-89
2022/11/18 03:22:24;;;;;;;12.43;1.77;;;;;;;16.95;nan;101325.22;6027418;23;20391;-89
2022/11/18 03:25:26;;;;;;;6.33;1.67;;;;;;;16.95;nan;101327.97;6068039;23;20724;-89
2022/11/18 03:28:02;;;;;;;9.60;1.80;;;;;;;16.92;nan;101328.44;6067027;23;20454;-90
2022/11/18 03:30:29;;;;;;;10.33;1.73;;;;;;;16.86;nan;101332.06;6027368;23;20788;-88
2022/11/18 03:33:01;;;;;;;10.90;2.00;;;;;;;16.81;nan;101326.34;6025373;23;20481;-90
2022/11/18 03:35:30;;;;;;;16.53;1.70;;;;;;;16.82;nan;101339.94;6026392;23;20403;-89
2022/11/18 03:38:06;;;;;;;7.00;1.70;;;;;;;16.82;nan;101339.94;6028573;23;20399;-89
2022/11/18 03:40:35;;;;;;;13.43;2.17;;;;;;;16.80;nan;101344.00;6089191;23;20400;-89
2022/11/18 03:43:12;;;;;;;15.47;1.90;;;;;;;16.81;nan;101351.22;6091362;23;20472;-89
2022/11/18 03:45:47;;;;;;;14.73;2.27;;;;;;;16.80;nan;101355.03;6083789;23;20888;-89
2022/11/18 03:48:16;;;;;;;11.87;2.10;;;;;;;16.76;nan;101345.50;6131020;23;20452;-89
2022/11/18 03:50:51;;;;;;;14.40;1.90;;;;;;;16.68;nan;101331.97;6083635;23;20416;-89
2022/11/18 03:53:19;;;;;;;10.60;1.73;;;;;;;16.68;nan;101331.97;6083886;23;20405;-90
2022/11/18 03:55:51;;;;;;;12.40;1.80;;;;;;;16.75;nan;101349.31;6083240;23;20409;-89
2022/11/18 03:58:29;;;;;;;10.10;2.17;;;;;;;16.76;nan;101340.81;6106644;23;20406;-89
2022/11/18 04:01:00;;;;;;;8.80;1.80;;;;;;;16.72;nan;101327.69;6082584;23;20415;-90
2022/11/18 04:03:28;;;;;;;12.70;1.80;;;;;;;16.76;nan;101334.44;6106988;23;20405;-89
2022/11/18 04:06:22;;;;;;;7.60;2.00;;;;;;;16.76;nan;101327.00;6106188;23;20420;-89
2022/11/18 04:08:52;;;;;;;15.40;2.13;;;;;;;16.67;nan;101319.22;6115362;23;20421;-90
2022/11/18 04:14:13;;;;;;;13.00;1.60;;;;;;;16.74;nan;101317.28;6114274;23;20409;-89
2022/11/18 04:16:42;;;;;;;9.13;1.57;;;;;;;16.74;nan;101309.81;6083714;23;20528;-91
2022/11/18 04:19:09;;;;;;;8.73;2.07;;;;;;;16.74;nan;101311.75;6083236;23;20492;-90
2022/11/18 04:21:37;;;;;;;7.30;0.97;;;;;;;16.75;nan;101313.44;6082886;23;20441;-90
2022/11/18 04:24:05;;;;;;;13.83;1.30;;;;;;;16.75;nan;101302.38;6083107;23;20492;-90
2022/11/18 04:26:33;;;;;;;6.77;1.40;;;;;;;16.69;nan;101301.38;6106677;23;20409;-90
2022/11/18 04:29:01;;;;;;;10.17;1.93;;;;;;;16.68;nan;101307.13;6083134;23;20476;-89
2022/11/18 04:31:28;;;;;;;7.37;1.70;;;;;;;16.62;nan;101305.19;6083107;23;20401;-89
2022/11/18 04:33:58;;;;;;;8.73;1.70;;;;;;;16.61;nan;101282.25;6082999;23;20958;-89
2022/11/18 04:36:26;;;;;;;8.10;1.77;;;;;;;16.66;nan;101282.50;6082348;23;20419;-89
2022/11/18 04:38:53;;;;;;;9.27;2.07;;;;;;;16.68;nan;101298.84;6077318;23;20529;-89
2022/11/18 04:41:54;;;;;;;15.53;1.80;;;;;;;16.71;nan;101295.63;6077501;23;20981;-89
2022/11/18 04:44:11;;;;;;;12.00;2.30;;;;;;;16.72;nan;101275.25;6104785;23;20417;-89
2022/11/18 04:46:40;;;;;;;13.83;2.40;;;;;;;16.59;nan;101282.47;6079025;23;20525;-89
2022/11/18 04:49:09;;;;;;;15.63;2.10;;;;;;;16.73;nan;101312.84;6101781;23;20493;-89
2022/11/18 04:51:37;;;;;;;17.50;2.80;;;;;;;16.66;nan;101307.34;6101998;23;20401;-88
2022/11/18 04:54:06;;;;;;;12.97;2.13;;;;;;;16.63;nan;101315.16;6101340;23;20533;-89
2022/11/18 04:56:34;;;;;;;5.57;1.77;;;;;;;16.67;nan;101320.06;6078276;23;20398;-89
2022/11/18 04:59:02;;;;;;;14.27;2.30;;;;;;;16.63;nan;101313.28;6077733;23;20406;-89
2022/11/18 05:01:30;;;;;;;11.33;2.23;;;;;;;16.65;nan;101324.13;6101866;23;20397;-89
2022/11/18 05:04:01;;;;;;;16.23;3.00;;;;;;;16.76;nan;101345.50;6102082;23;20549;-89
2022/11/18 05:06:29;;;;;;;21.03;2.77;;;;;;;16.59;nan;101326.63;6101601;23;20489;-89
2022/11/18 05:08:57;;;;;;;14.97;2.73;;;;;;;16.72;nan;101341.50;6077567;23;20420;-90
2022/11/18 05:14:12;;;;;;;14.20;1.53;;;;;;;16.67;nan;101355.09;6028355;23;20966;-88
2022/11/18 05:16:42;;;;;;;19.27;2.67;;;;;;;16.65;nan;101343.44;5998534;23;20419;-89
2022/11/18 05:19:09;;;;;;;16.23;2.00;;;;;;;16.65;nan;101337.91;6021619;23;20494;-89
2022/11/18 05:21:44;;;;;;;19.27;2.90;;;;;;;16.62;nan;101327.28;6021643;23;20471;-89
2022/11/18 05:24:13;;;;;;;15.23;2.27;;;;;;;16.49;nan;101322.66;5998317;23;20415;-89
2022/11/18 05:26:41;;;;;;;11.67;1.97;;;;;;;16.55;nan;101328.13;5998266;23;20503;-89
2022/11/18 05:29:09;;;;;;;18.30;2.87;;;;;;;16.47;nan;101311.84;6020659;23;20536;-89
2022/11/18 05:31:39;;;;;;;23.43;5.87;;;;;;;16.51;nan;101337.94;6103520;23;20477;-90
2022/11/18 05:34:08;;;;;;;19.10;3.13;;;;;;;16.51;nan;101357.25;6079331;23;20436;-89
2022/11/18 05:36:35;;;;;;;7.90;1.90;;;;;;;16.36;nan;101347.53;6079466;23;20398;-89
2022/11/18 05:39:03;;;;;;;13.27;1.30;;;;;;;16.36;nan;101367.69;6078195;23;20516;-89
2022/11/18 05:44:18;;;;;;;12.10;3.17;;;;;;;16.24;nan;101359.25;6106880;23;20420;-89
2022/11/18 05:46:46;;;;;;;10.80;1.67;;;;;;;16.11;nan;101375.84;6079259;23;20713;-89
2022/11/18 05:49:15;;;;;;;10.07;1.83;;;;;;;15.99;nan;101365.66;6079306;23;20473;-89
2022/11/18 05:51:50;;;;;;;13.30;1.67;;;;;;;16.06;nan;101369.25;6079127;23;20410;-89
2022/11/18 05:54:19;;;;;;;12.07;2.90;;;;;;;16.05;nan;101362.03;6079411;23;20492;-90
2022/11/18 05:56:48;;;;;;;9.20;2.20;;;;;;;16.00;nan;101364.59;6102686;23;20904;-90
2022/11/18 05:59:17;;;;;;;9.10;1.27;;;;;;;16.01;nan;101364.38;6079524;23;20690;-89
2022/11/18 06:01:59;;;;;;;16.90;2.10;;;;;;;15.85;nan;101327.06;6079551;23;20774;-90
2022/11/18 06:04:46;;;;;;;12.83;2.37;;;;;;;15.94;nan;101351.69;6103175;23;20487;-90
2022/11/18 06:07:28;;;;;;;7.43;1.27;;;;;;;15.83;nan;101354.00;6103109;23;20437;-90
2022/11/18 06:10:01;;;;;;;8.83;1.70;;;;;;;15.82;nan;101338.53;6079296;23;20413;-90
2022/11/18 06:12:40;;;;;;;12.20;3.13;;;;;;;15.72;nan;101349.16;6104906;23;20397;-90
2022/11/18 06:15:20;;;;;;;15.67;2.87;;;;;;;15.69;nan;101352.34;6079444;23;20447;-89
2022/11/18 06:17:59;;;;;;;18.40;2.33;;;;;;;15.63;nan;101338.53;6081078;23;20425;-89
2022/11/18 06:20:26;;;;;;;12.80;2.00;;;;;;;15.61;nan;101337.91;6080394;23;20951;-89
2022/11/18 06:22:56;;;;;;;9.27;1.80;;;;;;;15.63;nan;101346.81;6079332;23;20477;-89
2022/11/18 06:25:24;;;;;;;19.77;2.53;;;;;;;15.66;nan;101358.25;6103024;23;20436;-90
2022/11/18 06:27:54;;;;;;;21.83;2.40;;;;;;;15.56;nan;101359.75;6078795;23;20545;-91
2022/11/18 06:30:23;;;;;;;13.50;2.20;;;;;;;15.65;nan;101391.53;6078507;23;20432;-89
2022/11/18 06:32:51;;;;;;;17.07;2.80;;;;;;;15.63;nan;101386.25;6079301;23;20411;-89
2022/11/18 06:35:21;;;;;;;18.53;2.43;;;;;;;15.48;nan;101358.00;6055573;23;20481;-88
2022/11/18 06:37:51;;;;;;;18.33;2.87;;;;;;;15.50;nan;101366.91;6055128;23;20395;-89
2022/11/18 06:40:20;;;;;;;8.90;1.70;;;;;;;15.62;nan;101391.97;6078631;23;20516;-89
2022/11/18 06:45:36;;;;;;;13.07;3.30;;;;;;;15.62;nan;101406.59;6127213;23;20425;-89
2022/11/18 06:48:04;;;;;;;16.73;3.50;;;;;;;15.57;nan;101378.84;6055075;23;21015;-89
2022/11/18 06:50:32;;;;;;;26.63;3.47;;;;;;;15.62;nan;101392.81;6055507;23;20493;-89
2022/11/18 06:53:02;;;;;;;9.40;2.07;;;;;;;15.67;nan;101439.03;6055280;23;20481;-90
2022/11/18 06:55:30;;;;;;;17.13;3.07;;;;;;;15.68;nan;101458.13;6055836;23;20542;-89
2022/11/18 06:57:58;;;;;;;19.73;2.27;;;;;;;15.71;nan;101459.59;6054323;23;20475;-89
2022/11/18 07:00:29;;;;;;;13.23;2.60;;;;;;;15.68;nan;101463.63;6056290;23;20410;-89
2022/11/18 07:03:01;;;;;;;20.23;2.03;;;;;;;15.54;nan;101459.97;6054915;23;20421;-89
2022/11/18 07:05:30;;;;;;;10.30;1.73;;;;;;;15.56;nan;101487.34;6055265;23;21025;-89
2022/11/18 07:08:00;;;;;;;10.20;2.40;;;;;;;15.59;nan;101469.56;6078754;23;20772;-89
2022/11/18 07:10:29;;;;;;;10.60;1.27;;;;;;;15.60;nan;101457.44;6055206;23;20410;-89
2022/11/18 07:12:56;;;;;;;5.80;1.07;;;;;;;15.54;nan;101450.84;6054384;23;20493;-89
2022/11/18 07:15:24;;;;;;;7.83;1.67;;;;;;;15.49;nan;101458.91;6078821;23;20553;-89
2022/11/18 07:17:52;;;;;;;9.27;1.10;;;;;;;15.53;nan;101471.19;6050267;23;20421;-90
2022/11/18 07:20:26;;;;;;;7.57;1.37;;;;;;;15.53;nan;101476.72;6055548;23;20808;-89
2022/11/18 07:22:55;;;;;;;4.37;0.70;;;;;;;15.50;nan;101479.88;6056598;23;20488;-89
2022/11/18 07:25:23;;;;;;;6.80;1.67;;;;;;;15.51;nan;101478.81;6054470;23;20422;-89
2022/11/18 07:27:52;;;;;;;4.60;0.97;;;;;;;15.45;nan;101483.25;6054398;23;20438;-89
2022/11/18 07:30:20;;;;;;;8.27;1.60;;;;;;;15.38;nan;101467.78;6054112;23;20437;-88
2022/11/18 07:32:48;;;;;;;5.43;0.77;;;;;;;15.44;nan;101489.81;6054808;23;20421;-90
2022/11/18 07:35:22;;;;;;;10.00;1.40;;;;;;;15.35;nan;101480.06;6054317;23;20418;-90
2022/11/18 07:37:50;;;;;;;8.27;1.50;;;;;;;15.34;nan;101489.38;6054956;23;20502;-89
2022/11/18 07:40:19;;;;;;;5.87;1.17;;;;;;;15.35;nan;101490.22;6048915;23;20439;-89
2022/11/18 07:42:47;;;;;;;9.77;1.47;;;;;;;15.35;nan;101507.59;6049450;23;20882;-89
2022/11/18 07:45:16;;;;;;;10.73;1.43;;;;;;;15.36;nan;101520.31;6026128;23;20474;-89
2022/11/18 07:47:45;;;;;;;6.97;1.17;;;;;;;15.36;nan;101522.22;6026141;23;21028;-89
2022/11/18 07:50:24;;;;;;;12.70;1.60;;;;;;;15.41;nan;101533.44;6050930;23;20490;-89
2022/11/18 07:52:55;;;;;;;5.60;1.20;;;;;;;15.37;nan;101527.53;6049340;23;20474;-87
2022/11/18 07:55:23;;;;;;;8.07;1.67;;;;;;;15.38;nan;101522.88;5986916;23;20492;-90
2022/11/18 07:57:56;;;;;;;6.30;2.00;;;;;;;15.38;nan;101526.47;5965199;23;20429;-90
2022/11/18 08:00:25;;;;;;;8.90;2.23;;;;;;;15.35;nan;101528.78;5963374;23;20433;-86
2022/11/18 08:02:52;;;;;;;14.53;2.03;;;;;;;15.46;nan;101545.56;5963089;23;20500;-88
2022/11/18 08:05:22;;;;;;;5.63;1.77;;;;;;;15.47;nan;101543.66;5962375;23;20450;-87
2022/11/18 08:07:50;;;;;;;14.60;2.87;;;;;;;15.55;nan;101560.03;5985954;23;20452;-86
2022/11/18 08:10:19;;;;;;;15.77;2.80;;;;;;;15.62;nan;101571.94;5961711;23;20409;-87
2022/11/18 08:12:47;;;;;;;7.27;2.60;;;;;;;15.63;nan;101592.91;5985613;23;20972;-86
2022/11/18 08:15:16;;;;;;;9.27;1.90;;;;;;;15.56;nan;101594.81;5985419;23;20425;-86
2022/11/18 08:17:43;;;;;;;9.60;1.60;;;;;;;15.60;nan;101592.47;5984373;23;20500;-86
2022/11/18 08:20:13;;;;;;;11.13;1.53;;;;;;;15.58;nan;101595.47;6011572;23;20507;-87
2022/11/18 08:22:41;;;;;;;11.10;1.47;;;;;;;15.49;nan;101596.66;6071393;23;20415;-87
2022/11/18 08:25:11;;;;;;;8.60;1.50;;;;;;;15.47;nan;101605.13;6047561;23;20411;-87
2022/11/18 08:27:39;;;;;;;10.27;2.30;;;;;;;15.43;nan;101594.72;6048711;23;20518;-87
2022/11/18 08:30:13;;;;;;;13.23;1.63;;;;;;;15.41;nan;101607.84;6022941;23;20399;-88
2022/11/18 08:32:41;;;;;;;6.23;1.00;;;;;;;15.42;nan;101606.78;6071245;23;20422;-88
2022/11/18 08:35:09;;;;;;;13.70;1.77;;;;;;;15.46;nan;101619.09;6071920;23;20925;-87
2022/11/18 08:37:37;;;;;;;7.57;1.37;;;;;;;15.46;nan;101597.06;6048498;23;20478;-88
2022/11/18 08:40:05;;;;;;;5.20;1.37;;;;;;;15.54;nan;101603.25;6113046;23;20508;-86
2022/11/18 08:42:33;;;;;;;13.57;1.07;;;;;;;15.63;nan;101619.63;6076965;23;20409;-87
2022/11/18 08:45:04;;;;;;;8.90;1.67;;;;;;;15.65;nan;101612.84;6099909;23;21015;-88
2022/11/18 08:47:33;;;;;;;15.50;2.10;;;;;;;15.75;nan;101626.25;6125209;23;20489;-86
2022/11/18 08:50:05;;;;;;;19.30;2.23;;;;;;;15.79;nan;101628.38;6076892;23;21016;-87
2022/11/18 08:52:34;;;;;;;12.43;1.50;;;;;;;15.85;nan;101624.81;6124130;23;20416;-88
2022/11/18 08:55:02;;;;;;;10.50;1.70;;;;;;;15.93;nan;101633.97;6100262;23;20493;-88
2022/11/18 08:57:29;;;;;;;12.87;2.17;;;;;;;16.07;nan;101641.19;6076659;23;20484;-88
2022/11/18 08:59:57;;;;;;;7.40;1.90;;;;;;;16.24;nan;101657.16;6100426;23;20481;-87
2022/11/18 09:02:25;;;;;;;7.47;1.40;;;;;;;16.30;nan;101671.19;6076189;23;20417;-87
2022/11/18 09:04:53;;;;;;;8.17;1.60;;;;;;;16.41;nan;101674.16;6123658;23;20976;-87
2022/11/18 09:07:22;;;;;;;10.80;1.70;;;;;;;16.34;nan;101678.84;6074825;23;20746;-88
2022/11/18 09:09:50;;;;;;;16.93;1.80;;;;;;;16.22;nan;101683.25;6100377;23;20520;-88
2022/11/18 09:12:18;;;;;;;10.33;1.50;;;;;;;16.14;nan;101677.94;6098487;23;20492;-87
2022/11/18 09:14:45;;;;;;;9.20;1.60;;;;;;;16.04;nan;101683.84;6123759;23;20802;-86
2022/11/18 09:17:33;;;;;;;7.03;1.07;;;;;;;16.08;nan;101684.28;6084031;23;20397;-86
2022/11/18 09:20:09;;;;;;;10.20;1.73;;;;;;;16.14;nan;101686.22;6124416;23;20964;-87
2022/11/18 09:22:38;;;;;;;8.70;1.40;;;;;;;16.24;nan;101678.38;6124257;23;20406;-87
2022/11/18 09:25:08;;;;;;;7.77;1.00;;;;;;;16.32;nan;101688.38;6099816;23;20798;-87
2022/11/18 09:27:35;;;;;;;8.10;1.60;;;;;;;16.39;nan;101692.84;6099974;23;20809;-88
2022/11/18 09:30:04;;;;;;;5.03;1.00;;;;;;;16.39;nan;101675.44;6124224;23;20414;-87
2022/11/18 09:32:33;;;;;;;11.50;1.40;;;;;;;16.62;nan;101702.66;6099663;23;20485;-86
2022/11/18 09:35:00;;;;;;;17.47;2.00;;;;;;;16.71;nan;101690.38;6076923;23;20413;-90
2022/11/18 09:37:28;;;;;;;12.97;1.03;;;;;;;16.80;nan;101684.44;6076748;23;20409;-88
2022/11/18 09:39:56;;;;;;;9.37;1.30;;;;;;;16.93;nan;101695.47;6028105;23;20486;-87
2022/11/18 09:42:55;;;;;;;12.10;2.17;;;;;;;17.02;nan;101685.06;6024861;23;20411;-87
2022/11/18 09:45:27;;;;;;;8.47;1.80;;;;;;;17.08;nan;101703.56;6047526;23;20738;-86
2022/11/18 09:48:00;;;;;;;8.47;1.53;;;;;;;17.17;nan;101713.31;6071994;23;20916;-87
2022/11/18 09:50:29;;;;;;;11.40;1.97;;;;;;;17.18;nan;101709.50;6048975;23;20407;-87
2022/11/18 09:53:21;;;;;;;9.23;2.57;;;;;;;17.20;nan;101726.72;6056084;23;20517;-86
2022/11/18 09:55:49;;;;;;;9.80;1.93;;;;;;;17.14;nan;101723.94;6025307;23;20413;-87
2022/11/18 09:58:34;;;;;;;10.40;2.97;;;;;;;17.23;nan;101720.75;6025747;23;20481;-86
2022/11/18 10:01:02;;;;;;;11.10;1.67;;;;;;;17.37;nan;101717.97;6029395;23;20481;-85
2022/11/18 10:03:31;;;;;;;5.67;1.30;;;;;;;17.50;nan;101726.25;6026299;23;20485;-87
2022/11/18 10:06:21;;;;;;;7.27;1.40;;;;;;;17.60;nan;101729.41;6049933;23;20418;-87
2022/11/18 10:08:58;;;;;;;13.67;1.97;;;;;;;17.63;nan;101734.53;6029882;23;20449;-87
2022/11/18 10:11:30;;;;;;;14.50;2.30;;;;;;;17.55;nan;101737.50;6049559;23;20414;-86
2022/11/18 10:14:13;;;;;;;9.30;1.60;;;;;;;17.44;nan;101755.59;6029532;23;20481;-87
2022/11/18 10:17:01;;;;;;;9.10;1.30;;;;;;;17.38;nan;101744.53;6073373;23;20494;-87
2022/11/18 10:19:51;;;;;;;6.77;1.13;;;;;;;17.37;nan;101757.50;6050869;23;20806;-87
2022/11/18 10:22:37;;;;;;;9.43;1.50;;;;;;;17.49;nan;101752.19;6049660;23;20538;-87
2022/11/18 10:25:13;;;;;;;4.73;1.37;;;;;;;17.61;nan;101753.22;6029328;23;20998;-87
2022/11/18 10:27:42;;;;;;;7.93;1.60;;;;;;;17.68;nan;101765.19;6026807;23;20793;-86
2022/11/18 10:30:18;;;;;;;13.40;2.20;;;;;;;17.90;nan;101758.28;6026146;23;20553;-87
2022/11/18 10:33:04;;;;;;;6.07;1.53;;;;;;;18.07;nan;101768.91;6072927;23;20746;-86
2022/11/18 10:35:34;;;;;;;7.83;1.60;;;;;;;18.12;nan;101752.47;6074919;23;20410;-86
2022/11/18 10:38:12;;;;;;;7.47;1.83;;;;;;;18.13;nan;101759.69;6029118;23;20494;-87
2022/11/18 10:40:49;;;;;;;13.33;2.10;;;;;;;18.08;nan;101768.69;6156743;23;20412;-87
2022/11/18 10:43:41;;;;;;;12.03;2.63;;;;;;;17.85;nan;101777.47;6132389;23;20559;-87
2022/11/18 10:46:31;;;;;;;6.33;1.57;;;;;;;17.62;nan;101766.00;6131267;23;20548;-87
2022/11/18 10:49:07;;;;;;;10.73;1.90;;;;;;;17.70;nan;101776.88;6107944;23;20588;-86
2022/11/18 10:51:42;;;;;;;13.03;1.50;;;;;;;17.73;nan;101772.78;6131182;23;20488;-87
2022/11/18 10:54:16;;;;;;;13.80;1.83;;;;;;;17.83;nan;101774.06;6108478;23;20415;-87
2022/11/18 10:56:49;;;;;;;12.07;2.17;;;;;;;17.91;nan;101776.59;6131236;23;20916;-87
2022/11/18 10:59:54;;;;;;;13.70;2.70;;;;;;;17.87;nan;101758.75;6132320;23;20548;-86
2022/11/18 11:02:38;;;;;;;10.20;1.50;;;;;;;18.07;nan;101766.97;6085991;23;20900;-87
2022/11/18 11:05:35;;;;;;;4.70;1.13;;;;;;;18.16;nan;101778.63;6106866;23;20409;-87
2022/11/18 11:08:04;;;;;;;8.97;1.40;;;;;;;18.14;nan;101769.69;6078013;23;20982;-86
2022/11/18 11:10:58;;;;;;;17.57;1.53;;;;;;;18.19;nan;101764.38;6094729;23;20424;-87
2022/11/18 11:13:26;;;;;;;8.03;1.23;;;;;;;18.17;nan;101760.97;6106854;23;20412;-87
2022/11/18 11:15:55;;;;;;;6.77;1.40;;;;;;;18.36;nan;101767.47;6083302;23;20420;-87
2022/11/18 11:18:42;;;;;;;17.43;2.20;;;;;;;18.40;nan;101769.59;6106818;23;20432;-87
2022/11/18 11:21:12;;;;;;;9.70;1.97;;;;;;;18.49;nan;101778.47;6087865;23;20576;-87
2022/11/18 11:23:40;;;;;;;9.50;1.70;;;;;;;18.41;nan;101810.06;6156564;23;20496;-87
2022/11/18 11:26:15;;;;;;;12.77;1.80;;;;;;;18.30;nan;101771.97;6082899;23;20495;-86
2022/11/18 11:29:48;;;;;;;11.10;1.60;;;;;;;18.56;nan;101771.84;6135277;23;20444;-88
2022/11/18 11:32:39;;;;;;;9.43;1.73;;;;;;;18.68;nan;101771.16;6129960;23;20423;-87
2022/11/18 11:35:27;;;;;;;11.13;2.13;;;;;;;18.78;nan;101777.09;6064260;23;20496;-87
2022/11/18 11:37:56;;;;;;;20.00;1.87;;;;;;;18.72;nan;101776.03;6106556;23;20493;-86
2022/11/18 11:40:30;;;;;;;7.60;1.20;;;;;;;18.74;nan;101786.91;6130765;23;20879;-86
2022/11/18 11:43:31;;;;;;;7.50;1.30;;;;;;;18.85;nan;101783.44;6106454;23;20428;-86
2022/11/18 11:46:24;;;;;;;9.00;1.87;;;;;;;18.93;nan;101772.06;6130739;23;20491;-86
2022/11/18 11:49:04;;;;;;;9.07;1.87;;;;;;;18.92;nan;101773.16;6156205;23;20571;-87
2022/11/18 11:51:50;;;;;;;14.37;2.63;;;;;;;19.08;nan;101771.75;6108395;23;20405;-87
2022/11/18 11:54:27;;;;;;;8.70;1.50;;;;;;;18.92;nan;101767.59;6130107;23;20495;-86
2022/11/18 11:57:04;;;;;;;17.10;2.20;;;;;;;18.82;nan;101767.25;6130379;23;20910;-87
2022/11/18 11:59:52;;;;;;;7.73;2.10;;;;;;;18.87;nan;101757.19;6084498;23;20879;-87
2022/11/18 12:02:41;;;;;;;9.77;1.87;;;;;;;19.10;nan;101752.97;6106938;23;20408;-86
2022/11/18 12:05:41;;;;;;;4.43;1.13;;;;;;;19.26;nan;101752.41;6130011;23;20416;-87
2022/11/18 12:08:30;;;;;;;12.23;1.77;;;;;;;19.32;nan;101762.59;6151244;23;20424;-87
2022/11/18 12:11:09;;;;;;;5.67;1.50;;;;;;;19.35;nan;101751.06;6085618;23;20476;-87
2022/11/18 12:13:39;;;;;;;11.77;1.30;;;;;;;19.46;nan;101766.09;6108112;23;20516;-87
2022/11/18 12:16:25;;;;;;;7.57;1.70;;;;;;;19.31;nan;101739.56;6106336;23;20839;-87
2022/11/18 12:18:59;;;;;;;10.47;1.53;;;;;;;19.26;nan;101764.34;6130717;23;20496;-87
2022/11/18 12:21:46;;;;;;;11.50;1.80;;;;;;;19.15;nan;101748.47;6129824;23;20491;-86
2022/11/18 12:24:29;;;;;;;20.10;1.93;;;;;;;19.04;nan;101734.50;6130356;23;20491;-86
2022/11/18 12:27:05;;;;;;;14.47;2.40;;;;;;;19.01;nan;101746.88;6130255;23;20409;-86